• Join FlightAware (Why Join?)
  • Login
  • US Flag 
06:41AM EDT


 

Airport Tracker/Info


-or-


 

Live Flight TrackerFlight Track Log ✈ JZA7784 ✈ 02-May-2013 ✈ CYYZ - CYUL

Flight Track Log - Related Links

Times and Time Zones

All times are in EDT time to prevent confusion due to time zone crossing. See the JZA7784 flight status page for this flight to view local times or setup timezone preferences in your user account.

Time Position Orientation Groundspeed Altitude Reporting Facility
EDT Latitude Longitude Course Direction KTS MPH feet Rate Location/Type
12:25AM 43.6667 -79.5833 360° North 20 23 600  Level Toronto Center
12:26AM 43.6667 -79.5833 270° West 10 12 600  Level Toronto Center
12:29AM 43.6667 -79.6167 270° West 10 12 600  Level Toronto Center
12:32AM 43.6667 -79.6167 144° Southeast 10 12 600  Level Toronto Center
12:34AM 43.6667 -79.6167 144° Southeast 20 23 600  Level Toronto Center
12:35AM 43.6667 -79.6333 270° West 20 23 600  Level Toronto Center
12:36AM 43.6667 -79.6333 270° West 10 12 700  Climbing Toronto Center
12:37AM 43.6667 -79.6333 270° West 20 23 600 -60 Descending Toronto Center
12:38AM 43.6667 -79.6333 270° West 30 35 600  Level Toronto Center
12:39AM 43.6667 -79.6333 270° West 10 12 600  Level Toronto Center
12:40AM 43.6667 -79.6333 216° Southwest 60 69 600 1,200 Level Toronto Center
12:41AM 43.7167 -79.5833 36° Northeast 170 196 3,000 2,580 Climbing Toronto Center
12:42AM 43.7667 -79.5333 36° Northeast 210 242 5,800 2,580 Climbing Toronto Center
12:43AM 43.7667 -79.4500 90° East 250 288 8,200 2,460 Climbing Toronto Center
12:44AM 43.7500 -79.3333 101° East 270 311 10,800 1,860 Climbing Toronto Center
12:45AM 43.7333 -79.2167 101° East 330 380 12,000 1,800 Climbing Toronto Center
12:46AM 43.7167 -79.0833 100° East 360 414 14,400 2,100 Climbing Toronto Center
12:47AM 43.7000 -78.9167 98° East 380 437 16,200 1,800 Climbing Toronto Center
12:48AM 43.7000 -78.7833 90° East 400 460 18,000 1,800 Climbing Toronto Center
12:49AM 43.7000 -78.6167 90° East 410 472 19,800 1,680 Climbing Toronto Center
12:50AM 43.7500 -78.4833 63° Northeast 420 483 21,400 1,440 Climbing Toronto Center
12:51AM 43.8000 -78.3333 65° Northeast 430 495 22,700 1,260 Climbing Toronto Center
12:52AM 43.8667 -78.1833 58° Northeast 440 506 24,000 1,320 Climbing Toronto Center
12:53AM 43.9333 -78.0167 61° Northeast 450 518 25,400 1,320 Climbing Toronto Center
12:54AM 43.9833 -77.8667 65° Northeast 460 529 26,700 1,620 Climbing Toronto Center
12:55AM 44.0500 -77.7000 61° Northeast 460 529 28,700 1,860 Climbing Toronto Center
12:56AM 44.1167 -77.5667 55° Northeast 450 518 30,500 1,680 Climbing Toronto Center
12:57AM 44.1667 -77.4000 67° East 440 506 32,100 1,200 Climbing Toronto Center
12:58AM 44.2167 -77.2667 62° Northeast 440 506 33,000 420 Climbing Toronto Center
12:59AM 44.2667 -77.1167 65° Northeast 440 506 33,000  Level Toronto Center
12:59AM 44.3000 -77.0833 36° Northeast 430 495 33,000  Level Montreal Center
01:00AM 44.3500 -76.9500 62° Northeast 430 495 33,000  Level Montreal Center
01:01AM 44.4000 -76.7833 67° East 430 495 33,000  Level Montreal Center
01:02AM 44.4667 -76.6500 55° Northeast 430 495 33,000  Level Montreal Center
01:03AM 44.5000 -76.5000 73° East 430 495 33,000  Level Toronto Center
01:04AM 44.5500 -76.3500 65° Northeast 430 495 33,000  Level Toronto Center
01:04AM 44.5667 -76.3500 360° North 430 495 33,000  Level Montreal Center
01:05AM 44.6167 -76.2000 65° Northeast 430 495 33,000  Level Montreal Center
01:06AM 44.6667 -76.0333 67° East 430 495 33,000  Level Montreal Center
01:07AM 44.7167 -75.8667 67° East 430 495 33,000  Level Montreal Center
01:08AM 44.7500 -75.7333 71° East 430 495 33,000  Level Montreal Center
01:09AM 44.8000 -75.5667 67° East 430 495 33,000  Level Montreal Center
01:10AM 44.8333 -75.4000 74° East 430 495 33,000 -1,320 Level Montreal Center
01:11AM 44.8833 -75.2333 67° East 430 495 30,400 -2,580 Descending Montreal Center
01:12AM 44.9167 -75.1000 71° East 420 483 27,900 -2,640 Descending Montreal Center
01:13AM 44.9667 -74.9500 65° Northeast 410 472 25,200 -2,640 Descending Montreal Center
01:14AM 45.0167 -74.8000 65° Northeast 400 460 22,700 -2,400 Descending Montreal Center
01:15AM 45.0833 -74.6833 51° Northeast 400 460 20,400 -2,340 Descending Montreal Center
01:16AM 45.1333 -74.5500 62° Northeast 390 449 18,100 -2,160 Descending Montreal Center
01:17AM 45.2167 -74.4167 48° Northeast 390 449 16,100 -2,160 Descending Montreal Center
01:18AM 45.2833 -74.3333 41° Northeast 370 426 13,800 -2,280 Descending Montreal Center
01:19AM 45.3333 -74.2000 62° Northeast 330 380 11,600 -1,800 Descending Montreal Center
01:20AM 45.4000 -74.1000 46° Northeast 290 334 10,200 -1,800 Descending Montreal Center
01:21AM 45.4333 -74.0333 55° Northeast 280 322 8,100 -1,920 Descending Montreal Center
01:22AM 45.4833 -73.9333 54° Northeast 280 322 6,400 -1,560 Descending Montreal Center
01:23AM 45.5333 -73.8667 43° Northeast 270 311 5,000 -1,200 Descending Montreal Center
01:24AM 45.5667 -73.7833 60° Northeast 240 276 4,000 -960 Descending Montreal Center
01:25AM 45.6167 -73.7167 43° Northeast 230 265 3,100 -540 Descending Montreal Center
01:26AM 45.6500 -73.6500 54° Northeast 200 230 3,000 -60 Descending Montreal Center
01:27AM 45.6167 -73.6000 134° Southeast 190 219 3,000 -180 Level Montreal Center
01:28AM 45.5667 -73.6000 180° South 190 219 2,700 -300 Descending Montreal Center